Time;durP1;ratioP1;P1;durP2;ratioP2;P2;SDS_P1;SDS_P2;PMS_P1;PMS_P2;Temp;Humidity;BMP_temperature;BMP_pressure;BME280_temperature;BME280_humidity;BME280_pressure;Samples;Min_cycle;Max_cycle;Signal;HPM_P1;HPM_P2
2021/01/17 00:00:32;;;;;;;40.60;12.85;;;0.70;99.90;;;;;;5055984;28;20024;-73
2021/01/17 00:03:00;;;;;;;38.20;13.45;;;0.70;99.90;;;;;;5037840;28;20548;-74
2021/01/17 00:05:28;;;;;;;38.47;13.48;;;0.70;99.90;;;;;;5054299;28;20075;-73
2021/01/17 00:07:54;;;;;;;41.13;14.18;;;0.80;99.90;;;;;;5056041;28;20100;-73
2021/01/17 00:10:24;;;;;;;36.78;13.32;;;0.80;99.90;;;;;;5053706;28;20379;-73
2021/01/17 00:12:51;;;;;;;39.50;14.07;;;0.70;99.90;;;;;;5053785;28;20071;-73
2021/01/17 00:15:17;;;;;;;38.83;13.38;;;0.70;99.90;;;;;;5053552;28;20033;-73
2021/01/17 00:17:47;;;;;;;44.03;14.25;;;0.70;99.90;;;;;;5054982;28;20082;-73
2021/01/17 00:20:18;;;;;;;43.75;14.13;;;0.70;99.90;;;;;;5054959;28;20154;-74
2021/01/17 00:22:44;;;;;;;42.17;14.23;;;0.80;99.90;;;;;;5055244;28;20056;-73
2021/01/17 00:25:15;;;;;;;42.67;14.82;;;0.70;99.90;;;;;;5054036;28;20074;-73
2021/01/17 00:27:41;;;;;;;42.95;14.65;;;0.70;99.90;;;;;;5055094;28;20029;-74
2021/01/17 00:30:09;;;;;;;39.85;14.02;;;0.70;99.90;;;;;;5053886;28;20115;-73
2021/01/17 00:32:35;;;;;;;42.28;13.55;;;0.70;99.90;;;;;;5036914;28;20029;-73
2021/01/17 00:35:01;;;;;;;42.65;14.48;;;0.70;99.90;;;;;;5054639;28;20033;-73
2021/01/17 00:37:27;;;;;;;40.50;13.65;;;0.70;99.90;;;;;;5053451;28;20020;-74
2021/01/17 00:39:52;;;;;;;40.22;13.48;;;0.70;99.90;;;;;;5038228;28;20017;-73
2021/01/17 00:42:18;;;;;;;39.10;14.30;;;0.70;99.90;;;;;;5054375;28;20021;-73
2021/01/17 00:44:44;;;;;;;41.08;13.02;;;0.70;99.90;;;;;;5055119;28;20463;-73
2021/01/17 00:47:16;;;;;;;40.85;13.93;;;0.70;99.90;;;;;;5053300;28;20025;-75
2021/01/17 00:49:45;;;;;;;38.47;12.95;;;0.70;99.90;;;;;;5054925;28;20063;-73
2021/01/17 00:52:18;;;;;;;41.90;13.63;;;0.80;99.90;;;;;;5054720;28;20025;-74
2021/01/17 00:54:44;;;;;;;38.92;13.88;;;0.80;99.90;;;;;;5054736;28;20033;-74
2021/01/17 00:57:09;;;;;;;40.92;13.63;;;0.70;99.90;;;;;;5052175;28;20025;-74
2021/01/17 00:59:35;;;;;;;42.83;13.73;;;0.70;99.90;;;;;;5054694;28;20033;-73
2021/01/17 01:02:03;;;;;;;42.65;13.35;;;0.70;99.90;;;;;;5054029;28;20430;-73
2021/01/17 01:04:28;;;;;;;45.20;13.93;;;0.70;99.90;;;;;;5054661;28;20025;-74
2021/01/17 01:06:54;;;;;;;40.67;13.05;;;0.70;99.90;;;;;;5054379;28;20025;-74
2021/01/17 01:09:20;;;;;;;38.42;12.77;;;0.70;99.90;;;;;;5054399;28;20025;-74
2021/01/17 01:11:47;;;;;;;35.15;13.80;;;0.80;99.90;;;;;;5053539;28;20043;-74
2021/01/17 01:14:13;;;;;;;41.50;13.38;;;0.80;99.90;;;;;;5053553;28;20036;-74
2021/01/17 01:16:38;;;;;;;42.15;14.02;;;0.70;99.90;;;;;;5053392;28;20040;-74
2021/01/17 01:19:04;;;;;;;36.80;12.55;;;0.70;99.90;;;;;;5053633;28;20024;-73
2021/01/17 01:21:31;;;;;;;40.42;13.48;;;0.80;99.90;;;;;;5053779;28;20057;-73
2021/01/17 01:23:58;;;;;;;41.90;13.13;;;0.80;99.90;;;;;;5052936;28;20017;-73
2021/01/17 01:26:24;;;;;;;43.58;14.90;;;0.80;99.90;;;;;;5054318;28;20494;-73
2021/01/17 01:28:54;;;;;;;42.75;13.85;;;0.80;99.90;;;;;;5052619;28;20394;-74
2021/01/17 01:31:22;;;;;;;35.85;13.32;;;0.80;99.90;;;;;;5053573;28;20017;-73
2021/01/17 01:33:48;;;;;;;38.05;13.57;;;0.90;99.90;;;;;;5054410;28;20416;-73
2021/01/17 01:36:22;;;;;;;38.10;13.05;;;0.90;99.90;;;;;;5053740;28;20029;-74
2021/01/17 01:38:48;;;;;;;38.97;13.80;;;0.90;99.90;;;;;;5053818;28;20033;-75
2021/01/17 01:41:15;;;;;;;43.42;14.48;;;0.90;99.90;;;;;;5053675;28;20017;-75
2021/01/17 01:43:40;;;;;;;40.20;13.07;;;0.90;99.90;;;;;;5036406;28;20059;-75
2021/01/17 01:46:11;;;;;;;40.83;14.35;;;1.00;99.90;;;;;;5052218;28;20029;-75
2021/01/17 01:48:36;;;;;;;41.72;13.30;;;0.90;99.90;;;;;;5054196;28;20033;-75
2021/01/17 01:51:02;;;;;;;42.80;13.25;;;0.90;99.90;;;;;;5054364;28;20031;-75
2021/01/17 01:53:31;;;;;;;34.70;11.55;;;1.00;99.90;;;;;;5052758;28;20505;-75
2021/01/17 01:55:58;;;;;;;44.92;13.15;;;1.00;99.90;;;;;;5052460;28;20113;-74
2021/01/17 01:58:23;;;;;;;39.60;13.02;;;1.00;99.90;;;;;;5054633;28;20545;-75
2021/01/17 02:00:52;;;;;;;40.00;13.23;;;0.90;99.90;;;;;;5052998;28;20021;-74
2021/01/17 02:03:17;;;;;;;30.85;9.60;;;0.90;99.90;;;;;;5053763;28;20021;-74
2021/01/17 02:05:44;;;;;;;37.70;13.43;;;0.90;99.90;;;;;;5053553;28;20067;-74
2021/01/17 02:08:22;;;;;;;40.25;12.95;;;0.90;99.90;;;;;;5052627;28;20112;-74
2021/01/17 02:10:47;;;;;;;31.77;11.43;;;0.90;99.90;;;;;;5057918;28;20061;-74
2021/01/17 02:13:50;;;;;;;34.13;12.70;;;0.90;99.90;;;;;;5058152;28;20021;-74
2021/01/17 02:16:16;;;;;;;38.13;12.82;;;0.90;99.90;;;;;;5009250;28;20040;-74
2021/01/17 02:18:43;;;;;;;40.78;12.77;;;0.90;99.90;;;;;;5057721;28;20490;-74
2021/01/17 02:21:10;;;;;;;39.60;12.45;;;0.90;99.90;;;;;;5057969;28;20543;-74
2021/01/17 02:23:42;;;;;;;37.47;12.88;;;0.90;99.90;;;;;;5057641;28;20021;-74
2021/01/17 02:26:08;;;;;;;36.30;13.13;;;0.90;99.90;;;;;;5057403;28;20386;-74
2021/01/17 02:28:34;;;;;;;37.08;13.02;;;0.90;99.90;;;;;;5057277;28;20021;-74
2021/01/17 02:31:02;;;;;;;41.75;13.93;;;0.90;99.90;;;;;;5057202;28;20029;-74
2021/01/17 02:33:34;;;;;;;38.10;13.38;;;0.90;99.90;;;;;;5057161;28;20037;-74
2021/01/17 02:36:18;;;;;;;41.53;13.80;;;0.90;99.90;;;;;;5055548;28;20118;-74
2021/01/17 02:39:00;;;;;;;43.97;15.38;;;0.90;99.90;;;;;;5056914;28;20083;-74
2021/01/17 02:41:32;;;;;;;41.53;12.73;;;0.90;99.90;;;;;;5056452;28;20483;-74
2021/01/17 02:43:58;;;;;;;43.08;14.63;;;0.90;99.90;;;;;;5057581;28;20029;-75
2021/01/17 02:46:23;;;;;;;41.75;13.65;;;0.90;99.90;;;;;;5057456;28;20075;-74
2021/01/17 02:48:49;;;;;;;44.92;14.13;;;0.90;99.90;;;;;;5057406;28;20533;-74
2021/01/17 02:51:14;;;;;;;43.92;13.60;;;1.00;99.90;;;;;;5056051;28;20036;-74
2021/01/17 02:53:45;;;;;;;40.75;13.93;;;1.00;99.90;;;;;;5057514;28;20055;-74
2021/01/17 02:56:17;;;;;;;37.42;12.80;;;0.90;99.90;;;;;;5057040;28;20021;-74
2021/01/17 02:58:48;;;;;;;37.45;12.85;;;1.00;99.90;;;;;;5055889;28;20471;-74
2021/01/17 03:01:18;;;;;;;35.22;12.13;;;1.10;99.90;;;;;;5057065;28;20021;-74
2021/01/17 03:03:47;;;;;;;39.92;13.77;;;1.10;99.90;;;;;;5056202;28;20021;-74
2021/01/17 03:06:13;;;;;;;28.13;9.68;;;1.00;99.90;;;;;;5057111;28;20025;-73
2021/01/17 03:08:40;;;;;;;40.17;12.13;;;1.10;99.90;;;;;;5057105;28;20079;-73
2021/01/17 03:11:07;;;;;;;38.90;12.70;;;1.00;99.90;;;;;;5056935;28;20036;-73
2021/01/17 03:13:36;;;;;;;31.77;11.50;;;1.00;99.90;;;;;;5055898;28;20029;-73
2021/01/17 03:16:02;;;;;;;;;;;1.00;99.90;;;;;;5056967;28;20057;-73
2021/01/17 03:18:28;;;;;;;34.63;11.50;;;1.00;99.90;;;;;;5056768;28;19909;-73
2021/01/17 03:20:53;;;;;;;37.22;11.70;;;1.00;99.90;;;;;;5056036;28;20493;-74
2021/01/17 03:23:19;;;;;;;36.35;12.20;;;1.00;99.90;;;;;;5057217;28;20043;-73
2021/01/17 03:25:44;;;;;;;39.90;14.10;;;1.00;99.90;;;;;;5057115;28;20021;-73
2021/01/17 03:28:10;;;;;;;35.63;13.23;;;1.00;99.90;;;;;;5057069;28;20013;-73
2021/01/17 03:30:36;;;;;;;35.15;13.05;;;1.00;99.90;;;;;;5055487;28;20028;-73
2021/01/17 03:33:01;;;;;;;33.55;12.15;;;1.10;99.90;;;;;;5056523;28;20028;-73
2021/01/17 03:35:27;;;;;;;41.40;14.02;;;1.10;99.90;;;;;;5054878;28;20017;-73
2021/01/17 03:37:52;;;;;;;44.05;13.32;;;1.10;99.90;;;;;;5055032;28;20033;-73
2021/01/17 03:40:18;;;;;;;32.50;11.60;;;1.10;99.90;;;;;;5056243;28;20021;-73
2021/01/17 03:42:43;;;;;;;43.03;13.95;;;1.10;99.90;;;;;;5054626;28;20086;-74
2021/01/17 03:45:09;;;;;;;42.90;13.95;;;1.10;99.90;;;;;;5056647;28;20020;-71
2021/01/17 03:47:35;;;;;;;40.58;13.80;;;1.20;99.90;;;;;;5056610;28;20483;-73
2021/01/17 03:50:01;;;;;;;35.88;13.82;;;1.20;99.90;;;;;;5054533;28;20155;-73
2021/01/17 03:52:26;;;;;;;37.25;12.18;;;1.20;99.90;;;;;;5038054;28;20103;-73
2021/01/17 03:54:52;;;;;;;41.33;12.85;;;1.20;99.90;;;;;;5056265;28;20036;-73
2021/01/17 03:57:17;;;;;;;31.55;12.32;;;1.20;99.90;;;;;;5056679;28;20527;-73
2021/01/17 03:59:43;;;;;;;38.95;13.45;;;1.20;99.90;;;;;;5039464;28;20395;-73
2021/01/17 04:02:08;;;;;;;40.50;14.27;;;1.20;99.90;;;;;;5038250;28;20021;-73
2021/01/17 04:04:34;;;;;;;34.80;13.50;;;1.20;99.90;;;;;;5055586;28;20025;-73
2021/01/17 04:07:00;;;;;;;39.55;13.60;;;1.20;99.90;;;;;;5055572;28;20032;-73
2021/01/17 04:09:25;;;;;;;41.50;14.43;;;1.20;99.90;;;;;;5054544;28;20025;-73
2021/01/17 04:11:51;;;;;;;33.42;12.63;;;1.20;99.90;;;;;;5055819;28;20032;-72
2021/01/17 04:14:16;;;;;;;37.63;12.38;;;1.30;99.90;;;;;;5054589;28;20390;-72
2021/01/17 04:16:50;;;;;;;34.85;12.05;;;1.30;99.90;;;;;;5055410;28;20025;-73
2021/01/17 04:19:15;;;;;;;39.83;12.70;;;1.30;99.90;;;;;;5054980;28;20028;-73
2021/01/17 04:21:41;;;;;;;36.58;13.07;;;1.30;99.90;;;;;;5056091;28;20021;-73
2021/01/17 04:24:07;;;;;;;37.63;13.18;;;1.30;99.90;;;;;;5036933;28;20049;-73
2021/01/17 04:26:32;;;;;;;37.97;13.82;;;1.30;99.90;;;;;;5054963;28;20029;-73
2021/01/17 04:28:58;;;;;;;35.40;12.50;;;1.20;99.90;;;;;;5055516;28;20033;-73
2021/01/17 04:31:23;;;;;;;41.33;14.07;;;1.30;99.90;;;;;;5054919;28;20032;-72
2021/01/17 04:33:49;;;;;;;35.80;12.63;;;1.30;99.90;;;;;;5053233;28;20144;-72
2021/01/17 04:36:15;;;;;;;36.10;12.68;;;1.30;99.90;;;;;;5055065;28;20111;-72
2021/01/17 04:38:40;;;;;;;36.67;12.07;;;1.30;99.90;;;;;;5055280;28;20040;-72
2021/01/17 04:41:06;;;;;;;36.90;13.07;;;1.30;99.90;;;;;;5053557;28;20112;-73
2021/01/17 04:43:38;;;;;;;35.22;12.45;;;1.30;99.90;;;;;;5055038;28;20067;-73
2021/01/17 04:46:04;;;;;;;38.72;12.90;;;1.30;99.90;;;;;;5054674;28;20056;-73
2021/01/17 04:48:30;;;;;;;38.47;12.93;;;1.30;99.90;;;;;;5055403;28;20067;-73
2021/01/17 04:51:04;;;;;;;38.33;13.98;;;1.40;99.90;;;;;;5053588;28;20495;-73
2021/01/17 04:53:33;;;;;;;40.35;13.77;;;1.30;99.90;;;;;;5053971;28;20021;-73
2021/01/17 04:56:18;;;;;;;32.90;11.85;;;1.30;99.90;;;;;;5054500;28;20108;-73
2021/01/17 04:58:44;;;;;;;36.85;12.23;;;1.30;99.90;;;;;;5054793;28;20467;-73
2021/01/17 05:01:47;;;;;;;38.78;12.38;;;1.30;99.90;;;;;;5053510;28;20013;-73
2021/01/17 05:04:34;;;;;;;45.25;14.50;;;1.30;99.90;;;;;;5055111;28;20091;-73
2021/01/17 05:07:15;;;;;;;38.22;13.55;;;1.30;99.90;;;;;;5054842;28;20061;-72
2021/01/17 05:09:45;;;;;;;37.13;11.73;;;1.40;99.90;;;;;;5053461;28;20556;-73
2021/01/17 05:12:14;;;;;;;37.38;13.15;;;1.40;99.90;;;;;;5054278;28;20029;-73
2021/01/17 05:14:48;;;;;;;42.85;12.73;;;1.30;99.90;;;;;;5053500;28;20402;-73
2021/01/17 05:17:21;;;;;;;37.17;12.85;;;1.30;99.90;;;;;;5053107;28;20083;-73
2021/01/17 05:19:47;;;;;;;42.22;12.93;;;1.30;99.90;;;;;;5053257;28;20029;-73
2021/01/17 05:22:14;;;;;;;38.63;12.40;;;1.30;99.90;;;;;;5054764;28;20025;-73
2021/01/17 05:24:42;;;;;;;35.08;12.68;;;1.30;99.90;;;;;;5054532;28;20036;-73
2021/01/17 05:27:08;;;;;;;43.72;13.80;;;1.40;99.90;;;;;;5053794;28;20033;-73
2021/01/17 05:29:34;;;;;;;38.17;14.02;;;1.40;99.90;;;;;;5054076;28;20044;-73
2021/01/17 05:32:03;;;;;;;41.08;13.30;;;1.40;99.90;;;;;;5055413;28;20051;-73
2021/01/17 05:34:29;;;;;;;37.33;12.57;;;1.40;99.90;;;;;;5052932;28;20067;-73
2021/01/17 05:37:06;;;;;;;40.42;13.25;;;1.40;99.90;;;;;;5053453;28;20037;-73
2021/01/17 05:39:52;;;;;;;42.90;13.02;;;1.40;99.90;;;;;;5053256;28;20040;-73
2021/01/17 05:42:19;;;;;;;37.83;13.52;;;1.40;99.90;;;;;;5054004;28;20021;-73
2021/01/17 05:44:45;;;;;;;40.22;13.80;;;1.40;99.90;;;;;;5035442;28;20028;-73
2021/01/17 05:47:10;;;;;;;38.72;13.13;;;1.50;99.90;;;;;;5053667;28;20020;-73
2021/01/17 05:49:36;;;;;;;36.95;13.60;;;1.40;99.90;;;;;;5052673;28;20029;-73
2021/01/17 05:52:12;;;;;;;41.97;13.45;;;1.40;99.90;;;;;;5053534;28;20021;-73
2021/01/17 05:54:40;;;;;;;40.25;12.32;;;1.40;99.90;;;;;;5053983;28;20471;-73
2021/01/17 05:57:13;;;;;;;39.40;12.48;;;1.40;99.90;;;;;;5053152;28;20021;-73
2021/01/17 05:59:38;;;;;;;51.53;13.13;;;1.40;99.90;;;;;;5054079;28;20388;-73
2021/01/17 06:02:12;;;;;;;43.03;12.93;;;1.50;99.90;;;;;;5053615;28;20021;-73
2021/01/17 06:04:40;;;;;;;34.03;12.60;;;1.40;99.90;;;;;;5053577;28;20021;-73
2021/01/17 06:07:07;;;;;;;38.25;13.15;;;1.50;99.90;;;;;;5052361;28;20112;-73
2021/01/17 06:09:34;;;;;;;36.78;12.25;;;1.50;99.90;;;;;;5052391;28;20442;-73
2021/01/17 06:11:59;;;;;;;40.00;13.75;;;1.50;99.90;;;;;;5053241;28;20372;-73
2021/01/17 06:14:25;;;;;;;38.80;12.18;;;1.50;99.90;;;;;;5052598;28;20047;-73
2021/01/17 06:17:03;;;;;;;35.85;12.90;;;1.50;99.90;;;;;;5035809;28;20037;-74
2021/01/17 06:19:37;;;;;;;35.17;12.50;;;1.50;99.90;;;;;;5053569;28;20020;-74
2021/01/17 06:22:06;;;;;;;40.78;12.10;;;1.50;99.90;;;;;;5052147;28;20021;-74
2021/01/17 06:24:39;;;;;;;40.42;12.77;;;1.50;99.90;;;;;;5053282;28;20043;-74
2021/01/17 06:27:06;;;;;;;35.30;11.57;;;1.50;99.90;;;;;;5054051;28;20414;-74
2021/01/17 06:29:40;;;;;;;35.50;13.13;;;1.50;99.90;;;;;;5052163;28;20024;-74
2021/01/17 06:32:15;;;;;;;40.50;12.30;;;1.60;99.90;;;;;;5053598;28;20033;-74
2021/01/17 06:34:44;;;;;;;37.75;11.25;;;1.60;99.90;;;;;;5144241;22;20417;-75
2021/01/17 06:37:11;;;;;;;39.38;14.27;;;1.60;99.90;;;;;;5056101;28;20071;-75
2021/01/17 06:39:42;;;;;;;42.20;13.02;;;1.60;99.90;;;;;;5051167;28;20025;-75
2021/01/17 06:42:11;;;;;;;37.30;12.75;;;1.60;99.90;;;;;;5052619;28;20023;-75
2021/01/17 06:44:38;;;;;;;39.22;13.20;;;1.60;99.90;;;;;;5050963;28;20020;-75
2021/01/17 06:47:03;;;;;;;42.85;13.82;;;1.70;99.90;;;;;;5052883;28;20030;-75
2021/01/17 06:49:31;;;;;;;39.03;12.98;;;1.70;99.90;;;;;;5053564;28;20036;-75
2021/01/17 06:51:58;;;;;;;40.53;13.82;;;1.70;99.90;;;;;;5052931;28;20029;-75
2021/01/17 06:54:39;;;;;;;34.63;11.65;;;1.70;99.90;;;;;;5052725;28;20028;-75
2021/01/17 06:57:05;;;;;;;41.70;13.18;;;1.70;99.90;;;;;;5053344;28;20095;-75
2021/01/17 06:59:44;;;;;;;35.67;13.23;;;1.70;99.90;;;;;;5051077;28;20021;-75
2021/01/17 07:02:13;;;;;;;35.60;12.50;;;1.70;99.90;;;;;;5037422;28;20026;-74
2021/01/17 07:04:41;;;;;;;34.65;13.93;;;1.70;99.90;;;;;;5036522;28;20021;-74
2021/01/17 07:07:30;;;;;;;38.83;13.45;;;1.70;99.90;;;;;;5036588;28;20091;-74
2021/01/17 07:10:03;;;;;;;34.78;12.55;;;1.80;99.90;;;;;;5026615;28;20039;-73
2021/01/17 07:12:56;;;;;;;35.83;13.35;;;1.80;99.90;;;;;;5037651;28;20057;-73
2021/01/17 07:15:28;;;;;;;34.47;12.30;;;1.80;99.90;;;;;;5036684;28;20034;-74
2021/01/17 07:18:00;;;;;;;32.17;12.60;;;1.90;99.90;;;;;;5036589;28;20037;-74
2021/01/17 07:20:28;;;;;;;38.85;13.43;;;1.90;99.90;;;;;;5036975;28;20022;-73
2021/01/17 07:22:57;;;;;;;38.50;12.70;;;1.90;99.90;;;;;;5036591;28;20029;-73
2021/01/17 07:25:25;;;;;;;38.40;13.75;;;1.90;99.90;;;;;;5036258;28;20052;-73
2021/01/17 07:28:11;;;;;;;29.80;11.93;;;1.90;99.90;;;;;;5036651;28;20365;-74
2021/01/17 07:30:59;;;;;;;34.85;11.95;;;1.90;99.90;;;;;;5037551;28;20108;-74
2021/01/17 07:33:45;;;;;;;36.60;12.18;;;2.00;99.90;;;;;;5036429;28;20398;-73
2021/01/17 07:36:11;;;;;;;36.25;11.48;;;2.00;99.90;;;;;;5034540;28;20030;-74
2021/01/17 07:38:46;;;;;;;36.50;12.55;;;2.00;99.90;;;;;;5035988;28;20076;-73
2021/01/17 07:41:14;;;;;;;40.30;12.45;;;2.00;99.90;;;;;;5053050;28;20029;-73
2021/01/17 07:43:42;;;;;;;35.28;13.15;;;2.00;99.90;;;;;;5055698;28;20471;-73
2021/01/17 07:46:18;;;;;;;37.70;11.97;;;2.00;99.90;;;;;;5054454;28;20117;-74
2021/01/17 07:48:45;;;;;;;32.08;10.85;;;2.00;99.90;;;;;;5056098;28;20598;-74
2021/01/17 07:51:13;;;;;;;33.85;11.65;;;2.00;99.90;;;;;;5056433;28;20021;-74
2021/01/17 07:53:41;;;;;;;33.30;12.27;;;2.00;99.90;;;;;;5055693;28;20021;-74
2021/01/17 07:56:17;;;;;;;34.40;11.10;;;2.00;99.90;;;;;;5055805;28;20052;-74
2021/01/17 07:58:45;;;;;;;32.55;10.80;;;2.00;99.90;;;;;;5054293;28;20038;-73
2021/01/17 08:01:40;;;;;;;35.78;11.35;;;2.00;99.90;;;;;;5055756;28;20047;-73
2021/01/17 08:04:05;;;;;;;40.95;12.60;;;2.10;99.90;;;;;;5055462;28;20096;-74
2021/01/17 08:06:34;;;;;;;30.65;10.95;;;2.10;99.90;;;;;;5055156;28;20072;-74
2021/01/17 08:09:00;;;;;;;34.20;11.98;;;2.10;99.90;;;;;;5055620;28;20060;-74
2021/01/17 08:11:57;;;;;;;23.98;9.88;;;2.10;99.90;;;;;;5055385;28;20021;-74
2021/01/17 08:14:33;;;;;;;35.90;11.73;;;2.10;99.90;;;;;;5055474;28;20040;-74
2021/01/17 08:17:02;;;;;;;43.78;13.45;;;2.20;99.90;;;;;;5055572;28;20060;-74
2021/01/17 08:19:34;;;;;;;30.70;9.93;;;2.20;99.90;;;;;;5055301;28;20025;-74
2021/01/17 08:22:22;;;;;;;27.90;9.25;;;2.20;99.90;;;;;;5055111;28;20100;-75
2021/01/17 08:24:52;;;;;;;31.55;11.55;;;2.20;99.90;;;;;;5055271;28;20047;-74
2021/01/17 08:27:39;;;;;;;40.42;11.35;;;2.20;99.90;;;;;;5055102;28;20036;-75
2021/01/17 08:30:07;;;;;;;32.47;11.63;;;5.20;99.90;;;;;;5051446;28;20048;-74
2021/01/17 08:32:45;;;;;;;26.83;10.95;;;2.30;99.90;;;;;;5053636;28;20028;-74
2021/01/17 08:35:10;;;;;;;33.78;10.73;;;2.30;99.90;;;;;;5054882;28;20402;-74
2021/01/17 08:37:36;;;;;;;31.33;9.55;;;2.30;99.90;;;;;;5054896;28;20025;-74
2021/01/17 08:40:03;;;;;;;34.20;9.68;;;2.40;99.90;;;;;;5055390;28;20087;-74
2021/01/17 08:42:33;;;;;;;28.27;10.02;;;2.40;99.90;;;;;;5054877;28;20505;-74
2021/01/17 08:45:00;;;;;;;33.60;10.10;;;2.50;99.90;;;;;;5054947;28;20474;-74
2021/01/17 08:47:28;;;;;;;34.75;10.35;;;2.50;99.90;;;;;;5054143;28;20021;-74
2021/01/17 08:49:54;;;;;;;29.83;8.70;;;2.50;99.90;;;;;;5053373;28;20021;-74
2021/01/17 08:52:27;;;;;;;29.30;7.65;;;2.60;99.90;;;;;;5070397;28;20032;-74
2021/01/17 08:54:53;;;;;;;27.23;8.20;;;2.60;99.90;;;;;;5052974;28;20036;-74
2021/01/17 08:57:38;;;;;;;27.35;8.85;;;2.70;99.90;;;;;;5052772;28;20021;-74
2021/01/17 09:00:12;;;;;;;28.17;7.43;;;2.80;99.90;;;;;;5054088;28;20021;-74
2021/01/17 09:02:38;;;;;;;25.17;7.82;;;2.80;99.90;;;;;;5054130;28;20021;-74
2021/01/17 09:05:15;;;;;;;27.77;7.75;;;2.90;99.90;;;;;;5048270;28;20124;-74
2021/01/17 09:07:42;;;;;;;24.05;6.95;;;2.90;99.90;;;;;;5034045;28;20018;-74
2021/01/17 09:10:12;;;;;;;28.58;6.63;;;3.00;99.90;;;;;;5034123;28;20030;-74
2021/01/17 09:12:38;;;;;;;31.77;8.15;;;3.00;99.90;;;;;;5032901;28;20053;-73
2021/01/17 09:15:20;;;;;;;35.00;8.50;;;3.10;99.90;;;;;;5034081;28;20485;-74
2021/01/17 09:17:57;;;;;;;27.58;6.03;;;3.20;99.90;;;;;;5033873;28;20022;-74
2021/01/17 09:20:25;;;;;;;27.35;5.65;;;3.20;99.90;;;;;;5040553;28;20018;-74
2021/01/17 09:22:52;;;;;;;25.03;4.77;;;3.30;99.90;;;;;;5043852;28;20467;-74
2021/01/17 09:25:18;;;;;;;20.83;5.05;;;3.40;99.90;;;;;;5044049;28;20029;-74
2021/01/17 09:27:44;;;;;;;18.90;3.78;;;3.40;99.90;;;;;;5054323;28;20043;-74
2021/01/17 09:30:11;;;;;;;16.15;3.40;;;3.50;99.90;;;;;;5035696;28;20376;-74
2021/01/17 09:32:38;;;;;;;19.98;3.45;;;3.50;99.90;;;;;;5034626;28;20029;-73
2021/01/17 09:37:35;;;;;;;24.98;2.88;;;3.70;99.90;;;;;;5041500;28;20075;-78
2021/01/17 09:40:01;;;;;;;20.33;1.73;;;3.80;99.90;;;;;;5035917;28;20363;-78
2021/01/17 09:42:28;;;;;;;12.63;1.95;;;3.90;99.90;;;;;;5045921;28;20024;-78
2021/01/17 09:44:55;;;;;;;23.75;2.42;;;4.10;99.90;;;;;;5054186;28;20117;-78
2021/01/17 09:47:24;;;;;;;12.35;2.08;;;4.20;99.90;;;;;;5036495;28;20025;-78
2021/01/17 09:49:50;;;;;;;;;;;4.30;99.90;;;;;;5039449;28;20077;-78
2021/01/17 09:52:24;;;;;;;11.95;3.22;;;4.40;99.90;;;;;;5035347;28;19920;-78
2021/01/17 09:54:53;;;;;;;21.38;2.60;;;4.50;99.90;;;;;;5033900;28;20493;-78
2021/01/17 09:57:21;;;;;;;16.70;1.52;;;4.70;99.90;;;;;;5033617;28;20450;-78
2021/01/17 09:59:48;;;;;;;12.38;1.27;;;4.80;99.90;;;;;;5017231;28;20060;-78
2021/01/17 10:02:22;;;;;;;14.30;1.15;;;4.80;99.90;;;;;;5040123;28;20013;-77
2021/01/17 10:04:48;;;;;;;17.52;1.73;;;4.90;99.90;;;;;;5047801;28;20026;-78
2021/01/17 10:07:18;;;;;;;11.05;0.75;;;5.10;99.90;;;;;;5016911;28;20471;-78
2021/01/17 10:09:45;;;;;;;17.83;1.10;;;5.20;99.90;;;;;;5034686;28;20108;-78
2021/01/17 10:12:11;;;;;;;14.85;1.48;;;5.30;99.90;;;;;;5033923;28;20041;-77
2021/01/17 10:14:37;;;;;;;17.13;1.23;;;5.40;99.90;;;;;;5044920;28;20078;-78
2021/01/17 10:17:05;;;;;;;18.80;1.70;;;5.50;99.90;;;;;;5035306;28;20361;-77
2021/01/17 10:19:37;;;;;;;13.55;0.95;;;5.50;99.90;;;;;;5045538;28;20094;-73
2021/01/17 10:22:04;;;;;;;14.90;2.05;;;5.50;99.90;;;;;;5053525;28;20018;-75
2021/01/17 10:24:33;;;;;;;10.05;0.95;;;5.60;99.90;;;;;;5053536;28;20017;-74
2021/01/17 10:27:04;;;;;;;19.42;1.48;;;5.70;99.90;;;;;;5053299;28;20074;-75
2021/01/17 10:29:35;;;;;;;9.95;1.85;;;5.80;99.90;;;;;;5042532;28;20101;-74
2021/01/17 10:32:07;;;;;;;13.82;1.48;;;6.10;99.90;;;;;;5038348;28;20025;-75
2021/01/17 10:34:44;;;;;;;16.23;2.78;;;6.30;99.90;;;;;;5033811;28;20375;-73
2021/01/17 10:37:14;;;;;;;10.65;1.02;;;6.40;99.90;;;;;;5052197;28;20053;-74
2021/01/17 10:39:41;;;;;;;19.08;1.60;;;6.40;99.90;;;;;;5037886;28;20022;-73
2021/01/17 10:42:12;;;;;;;13.10;1.67;;;6.30;99.90;;;;;;5039324;28;20125;-73
2021/01/17 10:45:03;;;;;;;16.45;1.25;;;6.20;99.90;;;;;;5036697;28;20036;-75
2021/01/17 10:47:31;;;;;;;18.23;1.15;;;6.20;99.90;;;;;;5029505;28;20037;-74
2021/01/17 10:50:01;;;;;;;9.18;1.08;;;6.10;99.90;;;;;;5042831;28;20087;-74
2021/01/17 10:52:29;;;;;;;29.25;2.50;;;6.00;99.90;;;;;;5025252;28;20038;-74
2021/01/17 10:54:57;;;;;;;21.73;2.40;;;6.00;99.90;;;;;;5041745;28;20040;-73
2021/01/17 10:57:23;;;;;;;19.38;1.23;;;5.90;99.90;;;;;;5044359;28;20032;-74
2021/01/17 10:59:53;;;;;;;11.35;1.45;;;5.90;99.90;;;;;;5023770;28;20488;-73
2021/01/17 11:02:24;;;;;;;9.48;1.42;;;5.90;99.90;;;;;;5037832;28;20121;-73
2021/01/17 11:04:50;;;;;;;17.75;2.08;;;5.90;99.90;;;;;;5036428;28;20116;-73
2021/01/17 11:07:27;;;;;;;13.82;1.77;;;5.80;99.90;;;;;;5036469;28;20482;-74
2021/01/17 11:09:54;;;;;;;12.90;1.20;;;5.80;99.90;;;;;;5028910;28;20091;-72
2021/01/17 11:12:37;;;;;;;14.13;1.42;;;5.80;99.90;;;;;;5024122;28;20026;-75
2021/01/17 11:15:09;;;;;;;20.50;1.92;;;5.70;99.90;;;;;;5026136;28;20143;-75
2021/01/17 11:17:36;;;;;;;13.75;1.88;;;5.70;99.90;;;;;;5043161;28;20491;-72
2021/01/17 11:20:04;;;;;;;12.55;1.20;;;5.70;99.90;;;;;;5028333;28;20055;-72
2021/01/17 11:22:32;;;;;;;11.97;1.37;;;5.70;99.90;;;;;;5054510;28;20545;-73
2021/01/17 11:24:58;;;;;;;12.73;1.00;;;5.80;99.90;;;;;;5035821;28;20025;-74
2021/01/17 11:27:33;;;;;;;16.25;0.77;;;5.90;99.90;;;;;;5035798;28;20029;-73
2021/01/17 11:29:59;;;;;;;13.70;1.20;;;5.90;99.90;;;;;;5036536;28;20028;-74
2021/01/17 11:32:35;;;;;;;11.40;2.72;;;6.00;99.90;;;;;;5036642;28;20468;-73
2021/01/17 11:35:01;;;;;;;19.80;1.95;;;6.20;99.90;;;;;;5055643;28;20456;-73
2021/01/17 11:37:37;;;;;;;13.07;1.50;;;6.40;99.90;;;;;;5041491;28;20483;-73
2021/01/17 11:40:09;;;;;;;9.23;1.88;;;6.50;99.90;;;;;;5019776;28;20021;-77
2021/01/17 11:42:35;;;;;;;15.10;0.57;;;6.60;99.90;;;;;;5017690;28;20022;-77
2021/01/17 11:45:14;;;;;;;12.20;0.63;;;7.20;99.90;;;;;;5017846;28;20033;-74
2021/01/17 11:47:43;;;;;;;9.77;1.00;;;7.00;99.90;;;;;;5028148;28;20074;-74
2021/01/17 11:50:19;;;;;;;8.63;1.08;;;7.10;99.90;;;;;;5029393;28;20391;-74
2021/01/17 11:52:59;;;;;;;9.45;0.88;;;7.10;99.90;;;;;;5035361;28;20025;-75
2021/01/17 11:55:28;;;;;;;13.27;0.68;;;7.30;99.90;;;;;;5035213;28;20026;-75
2021/01/17 11:58:17;;;;;;;11.70;0.90;;;7.40;99.90;;;;;;5035673;28;20029;-76
2021/01/17 12:01:00;;;;;;;13.13;1.50;;;7.50;99.90;;;;;;5035087;28;20025;-74
2021/01/17 12:03:37;;;;;;;9.65;1.77;;;7.60;99.90;;;;;;5043768;28;20519;-77
2021/01/17 12:06:04;;;;;;;13.52;0.75;;;7.70;99.90;;;;;;5055893;28;20053;-76
2021/01/17 12:08:54;;;;;;;9.95;0.80;;;7.80;99.90;;;;;;5055980;28;20086;-76
2021/01/17 12:11:32;;;;;;;12.45;0.75;;;8.00;99.90;;;;;;5037565;28;20033;-77
2021/01/17 12:13:59;;;;;;;7.82;0.50;;;8.00;99.90;;;;;;5028575;28;20038;-77
2021/01/17 12:16:42;;;;;;;12.40;0.40;;;7.90;99.90;;;;;;5053537;28;20036;-77
2021/01/17 12:19:14;;;;;;;13.70;1.30;;;8.00;99.90;;;;;;5056147;28;20463;-76
2021/01/17 12:21:40;;;;;;;9.45;0.52;;;8.20;99.90;;;;;;5055668;28;20013;-76
2021/01/17 12:24:09;;;;;;;9.23;0.85;;;8.20;99.90;;;;;;5055622;28;20023;-77
2021/01/17 12:26:35;;;;;;;10.48;1.05;;;8.20;99.90;;;;;;5056387;28;20078;-77
2021/01/17 12:29:01;;;;;;;11.95;0.75;;;8.20;99.90;;;;;;5056379;28;20422;-77
2021/01/17 12:31:27;;;;;;;12.32;1.58;;;8.20;99.90;;;;;;5055915;28;20025;-76
2021/01/17 12:33:54;;;;;;;12.77;0.70;;;8.40;99.90;;;;;;5047714;28;20021;-76
2021/01/17 12:36:22;;;;;;;11.05;1.08;;;8.40;99.90;;;;;;5017928;28;20128;-77
2021/01/17 12:38:48;;;;;;;11.37;1.30;;;8.30;99.90;;;;;;5019332;28;20475;-77
2021/01/17 12:41:22;;;;;;;17.65;1.40;;;8.20;99.90;;;;;;5017992;28;20268;-76
2021/01/17 12:43:48;;;;;;;13.32;0.90;;;8.00;99.90;;;;;;5035023;28;20026;-77
2021/01/17 12:46:15;;;;;;;12.15;0.77;;;7.90;99.90;;;;;;5034482;28;20488;-78
2021/01/17 12:48:42;;;;;;;11.38;0.43;;;7.90;99.90;;;;;;5054317;28;20425;-77
2021/01/17 12:51:08;;;;;;;7.80;0.50;;;7.80;99.90;;;;;;5037087;28;20018;-78
2021/01/17 12:53:35;;;;;;;18.80;2.45;;;8.00;99.90;;;;;;5043432;28;20096;-75
2021/01/17 12:56:00;;;;;;;15.50;1.10;;;8.10;99.90;;;;;;5044679;28;20434;-75